Old Bridge, New Jersey
Current Conditions -  °F | °C
As of 5:55 PM on Sunday 21 Dec 2014 (Local Time) from KBLM Reporting Station
Overcast Overcast  
Wind Chill: 32°   Ceiling: 2500
Heat Index: 36°   Visibility: 10mi
Dew Point: 23°   Wind: 5mph
Humidity: 60%   Direction: 330°NNW
Pressure: 30.3"   Gusts: NA
Location:  40.36°N, 74.34°W
Report Text: KBLM 212255Z AUTO 33004KT 10SM OVC025 02/M05 A3030 RMK AO1
Loading
Personal Weather Stations






























Interactive Weather Map New forecast layout! Learn more

10-Day Weather Forecast

Advertisements
Track Severe Weather on mobile